sensor_id;sensor_type;location;lat;lon;timestamp;P1;durP1;ratioP1;P2;durP2;ratioP2
12816;SDS011;6473;51.552;6.716;2023-08-06T00:03:57;3.75;;;3.45;;
12816;SDS011;6473;51.552;6.716;2023-08-06T00:06:26;4.50;;;4.10;;
12816;SDS011;6473;51.552;6.716;2023-08-06T00:12:21;4.20;;;3.80;;
12816;SDS011;6473;51.552;6.716;2023-08-06T00:14:49;5.18;;;4.07;;
12816;SDS011;6473;51.552;6.716;2023-08-06T00:17:16;6.65;;;3.88;;
12816;SDS011;6473;51.552;6.716;2023-08-06T00:19:43;4.50;;;3.97;;
12816;SDS011;6473;51.552;6.716;2023-08-06T00:22:10;3.95;;;3.60;;
12816;SDS011;6473;51.552;6.716;2023-08-06T00:24:37;3.75;;;3.47;;
12816;SDS011;6473;51.552;6.716;2023-08-06T00:33:26;4.80;;;3.75;;
12816;SDS011;6473;51.552;6.716;2023-08-06T01:22:36;3.70;;;3.40;;
12816;SDS011;6473;51.552;6.716;2023-08-06T01:25:03;5.18;;;3.92;;
12816;SDS011;6473;51.552;6.716;2023-08-06T01:27:44;4.97;;;3.75;;
12816;SDS011;6473;51.552;6.716;2023-08-06T01:30:15;4.28;;;3.90;;
12816;SDS011;6473;51.552;6.716;2023-08-06T01:32:44;4.20;;;3.80;;
12816;SDS011;6473;51.552;6.716;2023-08-06T03:55:27;4.35;;;3.95;;
12816;SDS011;6473;51.552;6.716;2023-08-06T04:16:44;3.83;;;3.45;;
12816;SDS011;6473;51.552;6.716;2023-08-06T04:19:11;5.07;;;3.60;;
12816;SDS011;6473;51.552;6.716;2023-08-06T04:21:38;6.15;;;3.75;;
12816;SDS011;6473;51.552;6.716;2023-08-06T04:28:00;4.05;;;3.65;;
12816;SDS011;6473;51.552;6.716;2023-08-06T04:30:27;5.00;;;4.00;;
12816;SDS011;6473;51.552;6.716;2023-08-06T04:32:57;4.80;;;4.00;;
12816;SDS011;6473;51.552;6.716;2023-08-06T05:38:26;4.05;;;3.65;;
12816;SDS011;6473;51.552;6.716;2023-08-06T05:40:53;4.40;;;3.53;;
12816;SDS011;6473;51.552;6.716;2023-08-06T05:43:31;3.97;;;3.30;;
12816;SDS011;6473;51.552;6.716;2023-08-06T05:45:57;4.05;;;3.47;;
12816;SDS011;6473;51.552;6.716;2023-08-06T05:48:24;5.95;;;3.03;;
12816;SDS011;6473;51.552;6.716;2023-08-06T05:54:22;6.47;;;3.38;;
12816;SDS011;6473;51.552;6.716;2023-08-06T05:56:48;4.55;;;3.10;;
12816;SDS011;6473;51.552;6.716;2023-08-06T05:59:22;3.28;;;2.97;;
12816;SDS011;6473;51.552;6.716;2023-08-06T06:01:49;3.83;;;2.97;;
12816;SDS011;6473;51.552;6.716;2023-08-06T06:04:16;3.20;;;2.90;;
12816;SDS011;6473;51.552;6.716;2023-08-06T06:06:42;3.38;;;2.90;;
12816;SDS011;6473;51.552;6.716;2023-08-06T06:09:10;5.50;;;2.55;;
12816;SDS011;6473;51.552;6.716;2023-08-06T06:14:25;4.03;;;2.90;;
12816;SDS011;6473;51.552;6.716;2023-08-06T06:16:52;3.15;;;2.58;;
12816;SDS011;6473;51.552;6.716;2023-08-06T06:19:29;3.25;;;2.78;;
12816;SDS011;6473;51.552;6.716;2023-08-06T06:21:56;2.75;;;2.55;;
12816;SDS011;6473;51.552;6.716;2023-08-06T06:24:23;3.67;;;2.63;;
12816;SDS011;6473;51.552;6.716;2023-08-06T06:26:50;4.97;;;2.55;;
12816;SDS011;6473;51.552;6.716;2023-08-06T06:29:18;3.55;;;2.53;;
12816;SDS011;6473;51.552;6.716;2023-08-06T06:31:44;4.32;;;2.42;;
12816;SDS011;6473;51.552;6.716;2023-08-06T06:34:11;6.63;;;2.45;;
12816;SDS011;6473;51.552;6.716;2023-08-06T06:36:38;3.50;;;2.58;;
12816;SDS011;6473;51.552;6.716;2023-08-06T06:39:05;4.45;;;2.70;;
12816;SDS011;6473;51.552;6.716;2023-08-06T06:41:33;3.45;;;2.60;;
12816;SDS011;6473;51.552;6.716;2023-08-06T06:44:08;2.65;;;2.45;;
12816;SDS011;6473;51.552;6.716;2023-08-06T06:46:36;2.97;;;2.50;;
12816;SDS011;6473;51.552;6.716;2023-08-06T06:49:03;3.53;;;2.70;;
12816;SDS011;6473;51.552;6.716;2023-08-06T06:51:30;2.97;;;2.50;;
12816;SDS011;6473;51.552;6.716;2023-08-06T06:53:57;2.72;;;2.30;;
12816;SDS011;6473;51.552;6.716;2023-08-06T06:56:24;2.70;;;2.40;;
12816;SDS011;6473;51.552;6.716;2023-08-06T06:58:51;3.60;;;2.30;;
12816;SDS011;6473;51.552;6.716;2023-08-06T07:01:18;2.92;;;2.35;;
12816;SDS011;6473;51.552;6.716;2023-08-06T07:03:46;3.08;;;2.45;;
12816;SDS011;6473;51.552;6.716;2023-08-06T07:06:13;3.15;;;2.30;;
12816;SDS011;6473;51.552;6.716;2023-08-06T07:08:40;4.35;;;2.53;;
12816;SDS011;6473;51.552;6.716;2023-08-06T07:11:07;3.40;;;2.55;;
12816;SDS011;6473;51.552;6.716;2023-08-06T07:13:34;3.42;;;2.38;;
12816;SDS011;6473;51.552;6.716;2023-08-06T07:16:01;5.18;;;3.05;;
12816;SDS011;6473;51.552;6.716;2023-08-06T07:18:28;3.28;;;2.70;;
12816;SDS011;6473;51.552;6.716;2023-08-06T07:20:56;3.72;;;2.92;;
12816;SDS011;6473;51.552;6.716;2023-08-06T07:23:24;3.25;;;2.67;;
12816;SDS011;6473;51.552;6.716;2023-08-06T07:25:51;2.97;;;2.78;;
12816;SDS011;6473;51.552;6.716;2023-08-06T07:28:18;4.05;;;2.90;;
12816;SDS011;6473;51.552;6.716;2023-08-06T07:30:45;5.82;;;3.03;;
12816;SDS011;6473;51.552;6.716;2023-08-06T07:33:13;4.22;;;2.75;;
12816;SDS011;6473;51.552;6.716;2023-08-06T07:35:39;4.95;;;3.05;;
12816;SDS011;6473;51.552;6.716;2023-08-06T07:38:08;4.43;;;3.33;;
12816;SDS011;6473;51.552;6.716;2023-08-06T07:40:35;3.70;;;3.10;;
12816;SDS011;6473;51.552;6.716;2023-08-06T07:43:02;4.47;;;3.53;;
12816;SDS011;6473;51.552;6.716;2023-08-06T07:45:32;3.72;;;3.25;;
12816;SDS011;6473;51.552;6.716;2023-08-06T07:48:00;3.85;;;3.33;;
12816;SDS011;6473;51.552;6.716;2023-08-06T07:50:27;5.47;;;3.15;;
12816;SDS011;6473;51.552;6.716;2023-08-06T07:52:54;5.70;;;3.53;;
12816;SDS011;6473;51.552;6.716;2023-08-06T07:55:22;3.40;;;3.00;;
12816;SDS011;6473;51.552;6.716;2023-08-06T07:57:49;3.60;;;2.50;;
12816;SDS011;6473;51.552;6.716;2023-08-06T08:00:16;3.95;;;2.60;;
12816;SDS011;6473;51.552;6.716;2023-08-06T08:02:42;3.97;;;2.25;;
12816;SDS011;6473;51.552;6.716;2023-08-06T08:05:11;2.60;;;2.17;;
12816;SDS011;6473;51.552;6.716;2023-08-06T08:07:38;3.65;;;2.10;;
12816;SDS011;6473;51.552;6.716;2023-08-06T08:10:05;3.53;;;2.00;;
12816;SDS011;6473;51.552;6.716;2023-08-06T08:12:34;3.00;;;2.30;;
12816;SDS011;6473;51.552;6.716;2023-08-06T08:15:01;3.55;;;2.33;;
12816;SDS011;6473;51.552;6.716;2023-08-06T08:17:29;8.38;;;2.50;;
12816;SDS011;6473;51.552;6.716;2023-08-06T08:19:55;4.30;;;2.88;;
12816;SDS011;6473;51.552;6.716;2023-08-06T08:22:22;3.13;;;2.28;;
12816;SDS011;6473;51.552;6.716;2023-08-06T08:24:49;4.03;;;2.08;;
12816;SDS011;6473;51.552;6.716;2023-08-06T08:27:16;2.33;;;2.13;;
12816;SDS011;6473;51.552;6.716;2023-08-06T08:29:44;2.10;;;1.40;;
12816;SDS011;6473;51.552;6.716;2023-08-06T08:32:11;2.80;;;1.50;;
12816;SDS011;6473;51.552;6.716;2023-08-06T08:34:38;1.42;;;1.30;;
12816;SDS011;6473;51.552;6.716;2023-08-06T08:37:05;3.53;;;1.30;;
12816;SDS011;6473;51.552;6.716;2023-08-06T08:39:32;2.50;;;1.40;;
12816;SDS011;6473;51.552;6.716;2023-08-06T08:41:59;2.28;;;1.48;;
12816;SDS011;6473;51.552;6.716;2023-08-06T08:44:29;1.88;;;1.40;;
12816;SDS011;6473;51.552;6.716;2023-08-06T08:46:58;2.75;;;1.42;;
12816;SDS011;6473;51.552;6.716;2023-08-06T08:49:26;2.75;;;1.65;;
12816;SDS011;6473;51.552;6.716;2023-08-06T08:51:53;3.40;;;1.92;;
12816;SDS011;6473;51.552;6.716;2023-08-06T08:54:22;2.67;;;1.85;;
12816;SDS011;6473;51.552;6.716;2023-08-06T08:56:50;1.63;;;1.30;;
12816;SDS011;6473;51.552;6.716;2023-08-06T08:59:17;2.00;;;1.70;;
12816;SDS011;6473;51.552;6.716;2023-08-06T09:01:43;1.88;;;1.40;;
12816;SDS011;6473;51.552;6.716;2023-08-06T09:04:22;1.60;;;1.50;;
12816;SDS011;6473;51.552;6.716;2023-08-06T09:06:50;3.05;;;1.63;;
12816;SDS011;6473;51.552;6.716;2023-08-06T09:09:20;2.13;;;1.73;;
12816;SDS011;6473;51.552;6.716;2023-08-06T09:11:51;3.28;;;2.08;;
12816;SDS011;6473;51.552;6.716;2023-08-06T09:14:18;4.15;;;2.22;;
12816;SDS011;6473;51.552;6.716;2023-08-06T09:16:45;2.45;;;2.10;;
12816;SDS011;6473;51.552;6.716;2023-08-06T09:19:13;3.85;;;3.38;;
12816;SDS011;6473;51.552;6.716;2023-08-06T09:21:44;4.32;;;3.83;;
12816;SDS011;6473;51.552;6.716;2023-08-06T09:24:13;3.97;;;3.45;;
12816;SDS011;6473;51.552;6.716;2023-08-06T09:26:41;5.20;;;4.38;;
12816;SDS011;6473;51.552;6.716;2023-08-06T09:29:09;5.13;;;4.57;;
12816;SDS011;6473;51.552;6.716;2023-08-06T09:31:40;6.57;;;5.85;;
12816;SDS011;6473;51.552;6.716;2023-08-06T09:34:10;6.72;;;6.10;;
12816;SDS011;6473;51.552;6.716;2023-08-06T09:36:39;7.93;;;7.30;;
12816;SDS011;6473;51.552;6.716;2023-08-06T09:39:14;7.85;;;7.20;;
12816;SDS011;6473;51.552;6.716;2023-08-06T09:41:42;8.27;;;7.60;;
12816;SDS011;6473;51.552;6.716;2023-08-06T09:44:15;8.10;;;7.50;;
12816;SDS011;6473;51.552;6.716;2023-08-06T09:46:46;8.95;;;8.15;;
12816;SDS011;6473;51.552;6.716;2023-08-06T09:49:14;9.73;;;9.02;;
12816;SDS011;6473;51.552;6.716;2023-08-06T09:51:42;8.60;;;7.90;;
12816;SDS011;6473;51.552;6.716;2023-08-06T09:54:10;9.25;;;8.50;;
12816;SDS011;6473;51.552;6.716;2023-08-06T09:56:40;9.27;;;8.40;;
12816;SDS011;6473;51.552;6.716;2023-08-06T10:02:00;9.07;;;8.18;;
12816;SDS011;6473;51.552;6.716;2023-08-06T10:04:27;9.20;;;8.50;;
12816;SDS011;6473;51.552;6.716;2023-08-06T10:06:55;8.70;;;7.97;;
12816;SDS011;6473;51.552;6.716;2023-08-06T10:09:23;7.75;;;7.15;;
12816;SDS011;6473;51.552;6.716;2023-08-06T10:11:52;7.55;;;6.95;;
12816;SDS011;6473;51.552;6.716;2023-08-06T10:14:21;6.93;;;6.43;;
12816;SDS011;6473;51.552;6.716;2023-08-06T10:16:51;7.28;;;6.70;;
12816;SDS011;6473;51.552;6.716;2023-08-06T10:19:18;6.68;;;6.28;;
12816;SDS011;6473;51.552;6.716;2023-08-06T10:24:45;6.80;;;6.35;;
12816;SDS011;6473;51.552;6.716;2023-08-06T10:27:20;6.57;;;6.13;;
12816;SDS011;6473;51.552;6.716;2023-08-06T10:29:55;6.53;;;6.07;;
12816;SDS011;6473;51.552;6.716;2023-08-06T10:32:22;7.55;;;6.97;;
12816;SDS011;6473;51.552;6.716;2023-08-06T10:35:32;6.53;;;6.03;;
12816;SDS011;6473;51.552;6.716;2023-08-06T10:38:05;6.30;;;5.80;;
12816;SDS011;6473;51.552;6.716;2023-08-06T10:40:40;6.63;;;5.95;;
12816;SDS011;6473;51.552;6.716;2023-08-06T10:43:11;6.57;;;6.07;;
12816;SDS011;6473;51.552;6.716;2023-08-06T10:45:52;6.38;;;5.90;;
12816;SDS011;6473;51.552;6.716;2023-08-06T10:48:28;6.55;;;6.05;;
12816;SDS011;6473;51.552;6.716;2023-08-06T10:50:56;5.95;;;5.55;;
12816;SDS011;6473;51.552;6.716;2023-08-06T10:53:23;6.18;;;5.78;;
12816;SDS011;6473;51.552;6.716;2023-08-06T10:55:49;6.72;;;6.22;;
12816;SDS011;6473;51.552;6.716;2023-08-06T10:58:18;5.65;;;5.15;;
12816;SDS011;6473;51.552;6.716;2023-08-06T11:00:45;4.95;;;4.47;;
12816;SDS011;6473;51.552;6.716;2023-08-06T11:03:12;4.72;;;4.07;;
12816;SDS011;6473;51.552;6.716;2023-08-06T11:05:39;2.83;;;2.58;;
12816;SDS011;6473;51.552;6.716;2023-08-06T11:08:06;1.85;;;1.60;;
12816;SDS011;6473;51.552;6.716;2023-08-06T11:10:33;1.17;;;1.17;;
12816;SDS011;6473;51.552;6.716;2023-08-06T11:13:00;0.98;;;0.98;;
12816;SDS011;6473;51.552;6.716;2023-08-06T11:15:29;1.42;;;1.33;;
12816;SDS011;6473;51.552;6.716;2023-08-06T11:17:57;2.80;;;1.80;;
12816;SDS011;6473;51.552;6.716;2023-08-06T11:20:30;1.77;;;1.58;;
12816;SDS011;6473;51.552;6.716;2023-08-06T11:22:57;3.20;;;1.45;;
12816;SDS011;6473;51.552;6.716;2023-08-06T11:25:24;2.70;;;1.48;;
12816;SDS011;6473;51.552;6.716;2023-08-06T11:27:51;1.58;;;1.50;;
12816;SDS011;6473;51.552;6.716;2023-08-06T11:30:20;1.50;;;1.40;;
12816;SDS011;6473;51.552;6.716;2023-08-06T11:32:49;1.40;;;1.30;;
12816;SDS011;6473;51.552;6.716;2023-08-06T11:35:15;1.00;;;1.00;;
12816;SDS011;6473;51.552;6.716;2023-08-06T11:37:43;1.10;;;1.10;;
12816;SDS011;6473;51.552;6.716;2023-08-06T11:40:11;1.00;;;1.00;;
12816;SDS011;6473;51.552;6.716;2023-08-06T11:42:40;1.20;;;0.90;;
12816;SDS011;6473;51.552;6.716;2023-08-06T11:48:59;1.10;;;1.08;;
12816;SDS011;6473;51.552;6.716;2023-08-06T11:51:26;0.70;;;0.70;;
12816;SDS011;6473;51.552;6.716;2023-08-06T11:53:58;0.80;;;0.80;;
12816;SDS011;6473;51.552;6.716;2023-08-06T11:56:25;1.35;;;0.70;;
12816;SDS011;6473;51.552;6.716;2023-08-06T11:58:54;1.77;;;0.73;;
12816;SDS011;6473;51.552;6.716;2023-08-06T12:01:21;0.57;;;0.57;;
12816;SDS011;6473;51.552;6.716;2023-08-06T12:03:48;0.70;;;0.70;;
12816;SDS011;6473;51.552;6.716;2023-08-06T12:06:16;2.17;;;0.63;;
12816;SDS011;6473;51.552;6.716;2023-08-06T12:08:43;1.95;;;0.90;;
12816;SDS011;6473;51.552;6.716;2023-08-06T12:11:10;1.15;;;1.05;;
12816;SDS011;6473;51.552;6.716;2023-08-06T12:13:37;0.50;;;0.50;;
12816;SDS011;6473;51.552;6.716;2023-08-06T12:16:04;0.50;;;0.50;;
12816;SDS011;6473;51.552;6.716;2023-08-06T12:18:31;1.55;;;0.70;;
12816;SDS011;6473;51.552;6.716;2023-08-06T12:20:58;0.40;;;0.40;;
12816;SDS011;6473;51.552;6.716;2023-08-06T12:23:37;0.90;;;0.70;;
12816;SDS011;6473;51.552;6.716;2023-08-06T12:26:03;0.60;;;0.60;;
12816;SDS011;6473;51.552;6.716;2023-08-06T12:28:30;0.45;;;0.45;;
12816;SDS011;6473;51.552;6.716;2023-08-06T12:42:17;0.50;;;0.50;;
12816;SDS011;6473;51.552;6.716;2023-08-06T12:44:44;0.55;;;0.45;;
12816;SDS011;6473;51.552;6.716;2023-08-06T12:47:11;0.68;;;0.68;;
12816;SDS011;6473;51.552;6.716;2023-08-06T12:49:37;0.68;;;0.68;;
12816;SDS011;6473;51.552;6.716;2023-08-06T12:52:04;1.30;;;0.70;;
12816;SDS011;6473;51.552;6.716;2023-08-06T12:54:34;0.70;;;0.70;;
12816;SDS011;6473;51.552;6.716;2023-08-06T12:57:02;1.05;;;1.05;;
12816;SDS011;6473;51.552;6.716;2023-08-06T13:03:25;0.98;;;0.98;;
12816;SDS011;6473;51.552;6.716;2023-08-06T13:09:18;1.38;;;1.27;;
12816;SDS011;6473;51.552;6.716;2023-08-06T13:11:45;1.50;;;1.40;;
12816;SDS011;6473;51.552;6.716;2023-08-06T13:14:15;1.88;;;1.58;;
12816;SDS011;6473;51.552;6.716;2023-08-06T13:16:42;1.90;;;1.80;;
12816;SDS011;6473;51.552;6.716;2023-08-06T13:24:48;2.33;;;2.13;;
12816;SDS011;6473;51.552;6.716;2023-08-06T13:27:15;2.88;;;2.60;;
12816;SDS011;6473;51.552;6.716;2023-08-06T13:29:42;3.42;;;2.35;;
12816;SDS011;6473;51.552;6.716;2023-08-06T13:32:09;2.83;;;2.40;;
12816;SDS011;6473;51.552;6.716;2023-08-06T13:34:38;2.50;;;2.30;;
12816;SDS011;6473;51.552;6.716;2023-08-06T13:39:49;2.72;;;2.53;;
12816;SDS011;6473;51.552;6.716;2023-08-06T13:42:16;2.53;;;2.33;;
12816;SDS011;6473;51.552;6.716;2023-08-06T13:44:55;2.70;;;2.50;;
12816;SDS011;6473;51.552;6.716;2023-08-06T13:47:27;2.28;;;2.08;;
12816;SDS011;6473;51.552;6.716;2023-08-06T13:49:54;2.75;;;2.42;;
12816;SDS011;6473;51.552;6.716;2023-08-06T13:55:23;2.42;;;2.20;;
12816;SDS011;6473;51.552;6.716;2023-08-06T13:57:49;2.08;;;1.98;;
12816;SDS011;6473;51.552;6.716;2023-08-06T14:00:24;2.58;;;2.35;;
12816;SDS011;6473;51.552;6.716;2023-08-06T14:02:51;2.53;;;2.33;;
12816;SDS011;6473;51.552;6.716;2023-08-06T14:05:18;2.35;;;2.10;;
12816;SDS011;6473;51.552;6.716;2023-08-06T14:08:00;2.25;;;2.05;;
12816;SDS011;6473;51.552;6.716;2023-08-06T14:10:28;3.28;;;2.05;;
12816;SDS011;6473;51.552;6.716;2023-08-06T14:12:55;2.05;;;1.85;;
12816;SDS011;6473;51.552;6.716;2023-08-06T14:18:15;1.70;;;1.60;;
12816;SDS011;6473;51.552;6.716;2023-08-06T14:20:42;1.75;;;1.60;;
12816;SDS011;6473;51.552;6.716;2023-08-06T14:23:10;1.60;;;1.50;;
12816;SDS011;6473;51.552;6.716;2023-08-06T14:25:41;2.38;;;1.70;;
12816;SDS011;6473;51.552;6.716;2023-08-06T14:28:08;2.80;;;1.83;;
12816;SDS011;6473;51.552;6.716;2023-08-06T14:30:34;1.40;;;1.30;;
12816;SDS011;6473;51.552;6.716;2023-08-06T14:33:02;1.65;;;1.40;;
12816;SDS011;6473;51.552;6.716;2023-08-06T14:38:36;1.67;;;1.50;;
12816;SDS011;6473;51.552;6.716;2023-08-06T14:41:04;2.25;;;1.73;;
12816;SDS011;6473;51.552;6.716;2023-08-06T14:43:31;2.55;;;1.80;;
12816;SDS011;6473;51.552;6.716;2023-08-06T14:46:06;1.92;;;1.80;;
12816;SDS011;6473;51.552;6.716;2023-08-06T14:48:33;1.90;;;1.80;;
12816;SDS011;6473;51.552;6.716;2023-08-06T14:51:00;2.33;;;1.80;;
12816;SDS011;6473;51.552;6.716;2023-08-06T14:53:27;2.10;;;1.60;;
12816;SDS011;6473;51.552;6.716;2023-08-06T14:55:54;2.35;;;1.67;;
12816;SDS011;6473;51.552;6.716;2023-08-06T14:58:22;1.52;;;1.40;;
12816;SDS011;6473;51.552;6.716;2023-08-06T15:00:49;1.50;;;1.40;;
12816;SDS011;6473;51.552;6.716;2023-08-06T15:03:16;2.00;;;1.33;;
12816;SDS011;6473;51.552;6.716;2023-08-06T15:05:50;2.75;;;1.95;;
12816;SDS011;6473;51.552;6.716;2023-08-06T15:12:05;1.55;;;1.48;;
12816;SDS011;6473;51.552;6.716;2023-08-06T15:14:34;1.90;;;1.80;;
12816;SDS011;6473;51.552;6.716;2023-08-06T15:17:01;1.92;;;1.48;;
12816;SDS011;6473;51.552;6.716;2023-08-06T15:19:34;1.70;;;1.60;;
12816;SDS011;6473;51.552;6.716;2023-08-06T15:22:01;1.42;;;1.33;;
12816;SDS011;6473;51.552;6.716;2023-08-06T15:24:28;1.90;;;1.38;;
12816;SDS011;6473;51.552;6.716;2023-08-06T15:27:15;1.50;;;1.40;;
12816;SDS011;6473;51.552;6.716;2023-08-06T15:29:43;1.58;;;1.48;;
12816;SDS011;6473;51.552;6.716;2023-08-06T15:32:10;1.52;;;1.30;;
12816;SDS011;6473;51.552;6.716;2023-08-06T15:34:38;2.47;;;1.50;;
12816;SDS011;6473;51.552;6.716;2023-08-06T15:44:05;1.80;;;1.60;;
12816;SDS011;6473;51.552;6.716;2023-08-06T15:46:34;2.88;;;1.77;;
12816;SDS011;6473;51.552;6.716;2023-08-06T15:49:01;1.63;;;1.50;;
12816;SDS011;6473;51.552;6.716;2023-08-06T15:51:28;3.03;;;2.22;;
12816;SDS011;6473;51.552;6.716;2023-08-06T15:53:55;2.78;;;1.33;;
12816;SDS011;6473;51.552;6.716;2023-08-06T15:56:31;1.92;;;1.83;;
12816;SDS011;6473;51.552;6.716;2023-08-06T15:59:07;1.60;;;1.30;;
12816;SDS011;6473;51.552;6.716;2023-08-06T16:01:51;1.85;;;1.48;;
12816;SDS011;6473;51.552;6.716;2023-08-06T16:04:18;1.55;;;1.45;;
12816;SDS011;6473;51.552;6.716;2023-08-06T16:06:49;1.40;;;1.30;;
12816;SDS011;6473;51.552;6.716;2023-08-06T16:09:16;1.65;;;1.38;;
12816;SDS011;6473;51.552;6.716;2023-08-06T16:11:43;2.05;;;1.40;;
12816;SDS011;6473;51.552;6.716;2023-08-06T16:14:10;1.40;;;1.30;;
12816;SDS011;6473;51.552;6.716;2023-08-06T16:16:38;1.55;;;1.25;;
12816;SDS011;6473;51.552;6.716;2023-08-06T16:19:09;1.63;;;1.52;;
12816;SDS011;6473;51.552;6.716;2023-08-06T16:21:36;1.58;;;1.48;;
12816;SDS011;6473;51.552;6.716;2023-08-06T16:24:13;2.05;;;1.73;;
12816;SDS011;6473;51.552;6.716;2023-08-06T16:26:40;1.55;;;1.40;;
12816;SDS011;6473;51.552;6.716;2023-08-06T16:29:07;1.77;;;1.65;;
12816;SDS011;6473;51.552;6.716;2023-08-06T16:31:41;2.38;;;1.52;;
12816;SDS011;6473;51.552;6.716;2023-08-06T16:34:10;1.70;;;1.60;;
12816;SDS011;6473;51.552;6.716;2023-08-06T16:39:18;2.47;;;1.70;;
12816;SDS011;6473;51.552;6.716;2023-08-06T16:41:46;1.80;;;1.70;;
12816;SDS011;6473;51.552;6.716;2023-08-06T16:44:18;1.88;;;1.77;;
12816;SDS011;6473;51.552;6.716;2023-08-06T16:46:45;3.38;;;1.63;;
12816;SDS011;6473;51.552;6.716;2023-08-06T16:49:13;1.92;;;1.73;;
12816;SDS011;6473;51.552;6.716;2023-08-06T16:51:40;2.22;;;1.90;;
12816;SDS011;6473;51.552;6.716;2023-08-06T16:54:06;2.85;;;1.90;;
12816;SDS011;6473;51.552;6.716;2023-08-06T17:00:22;2.10;;;1.80;;
12816;SDS011;6473;51.552;6.716;2023-08-06T17:06:00;3.13;;;2.40;;
12816;SDS011;6473;51.552;6.716;2023-08-06T17:08:28;3.20;;;2.75;;
12816;SDS011;6473;51.552;6.716;2023-08-06T17:10:59;3.35;;;3.05;;
12816;SDS011;6473;51.552;6.716;2023-08-06T17:13:26;2.97;;;2.65;;
12816;SDS011;6473;51.552;6.716;2023-08-06T17:15:53;3.58;;;3.28;;
12816;SDS011;6473;51.552;6.716;2023-08-06T17:18:20;4.32;;;3.92;;
12816;SDS011;6473;51.552;6.716;2023-08-06T17:20:52;4.05;;;3.65;;
12816;SDS011;6473;51.552;6.716;2023-08-06T17:26:11;4.18;;;3.88;;
12816;SDS011;6473;51.552;6.716;2023-08-06T17:28:38;4.07;;;3.67;;
12816;SDS011;6473;51.552;6.716;2023-08-06T17:31:05;4.20;;;3.80;;
12816;SDS011;6473;51.552;6.716;2023-08-06T17:33:32;4.00;;;3.60;;
12816;SDS011;6473;51.552;6.716;2023-08-06T17:50:33;3.25;;;1.73;;
12816;SDS011;6473;51.552;6.716;2023-08-06T17:53:00;2.58;;;1.65;;
12816;SDS011;6473;51.552;6.716;2023-08-06T17:55:26;3.17;;;1.92;;
12816;SDS011;6473;51.552;6.716;2023-08-06T17:57:54;4.78;;;2.10;;
12816;SDS011;6473;51.552;6.716;2023-08-06T18:00:27;4.97;;;1.70;;
12816;SDS011;6473;51.552;6.716;2023-08-06T18:02:54;3.85;;;1.60;;
12816;SDS011;6473;51.552;6.716;2023-08-06T18:05:20;3.35;;;1.30;;
12816;SDS011;6473;51.552;6.716;2023-08-06T18:07:48;3.58;;;1.50;;
12816;SDS011;6473;51.552;6.716;2023-08-06T18:10:16;2.45;;;1.20;;
12816;SDS011;6473;51.552;6.716;2023-08-06T18:12:43;1.98;;;1.40;;
12816;SDS011;6473;51.552;6.716;2023-08-06T18:15:10;2.63;;;1.27;;
12816;SDS011;6473;51.552;6.716;2023-08-06T18:17:38;3.72;;;1.30;;
12816;SDS011;6473;51.552;6.716;2023-08-06T18:20:06;2.40;;;1.45;;
12816;SDS011;6473;51.552;6.716;2023-08-06T18:22:34;5.78;;;1.48;;
12816;SDS011;6473;51.552;6.716;2023-08-06T18:25:05;2.53;;;1.30;;
12816;SDS011;6473;51.552;6.716;2023-08-06T18:27:32;1.88;;;1.17;;
12816;SDS011;6473;51.552;6.716;2023-08-06T18:29:59;1.17;;;0.95;;
12816;SDS011;6473;51.552;6.716;2023-08-06T18:32:26;3.00;;;1.30;;
12816;SDS011;6473;51.552;6.716;2023-08-06T18:34:53;5.60;;;1.30;;
12816;SDS011;6473;51.552;6.716;2023-08-06T22:03:00;5.53;;;1.73;;
12816;SDS011;6473;51.552;6.716;2023-08-06T22:05:27;7.75;;;1.60;;
12816;SDS011;6473;51.552;6.716;2023-08-06T22:08:07;2.25;;;1.38;;
12816;SDS011;6473;51.552;6.716;2023-08-06T22:10:34;7.07;;;2.00;;
12816;SDS011;6473;51.552;6.716;2023-08-06T22:13:00;4.63;;;1.92;;
12816;SDS011;6473;51.552;6.716;2023-08-06T22:15:36;7.88;;;2.03;;
12816;SDS011;6473;51.552;6.716;2023-08-06T22:18:04;10.48;;;2.33;;
12816;SDS011;6473;51.552;6.716;2023-08-06T22:20:31;6.82;;;1.75;;
12816;SDS011;6473;51.552;6.716;2023-08-06T22:57:10;4.70;;;2.00;;
12816;SDS011;6473;51.552;6.716;2023-08-06T23:03:36;7.95;;;2.15;;
12816;SDS011;6473;51.552;6.716;2023-08-06T23:16:23;5.03;;;1.92;;
12816;SDS011;6473;51.552;6.716;2023-08-06T23:18:50;1.75;;;1.35;;
12816;SDS011;6473;51.552;6.716;2023-08-06T23:21:17;3.22;;;2.17;;
12816;SDS011;6473;51.552;6.716;2023-08-06T23:23:44;2.75;;;2.08;;
12816;SDS011;6473;51.552;6.716;2023-08-06T23:26:11;3.40;;;2.08;;
